Time;durP1;ratioP1;P1;durP2;ratioP2;P2;SDS_P1;SDS_P2;PMS_P1;PMS_P2;Temp;Humidity;BMP_temperature;BMP_pressure;BME280_temperature;BME280_humidity;BME280_pressure;Samples;Min_cycle;Max_cycle;Signal;HPM_P1;HPM_P2
2022/03/02 00:02:19;;;;;;;21.45;13.50;;;1.10;99.90;;;;;;5049662;28;20033;-79
2022/03/02 00:04:47;;;;;;;31.75;16.48;;;1.00;99.90;;;;;;5038310;28;20036;-80
2022/03/02 00:07:12;;;;;;;21.73;15.13;;;0.90;99.90;;;;;;5033898;28;20032;-79
2022/03/02 00:09:38;;;;;;;26.08;14.52;;;0.90;99.90;;;;;;5036004;28;20056;-78
2022/03/02 00:12:04;;;;;;;26.13;14.07;;;0.80;99.90;;;;;;5027767;28;20025;-78
2022/03/02 00:14:29;;;;;;;14.57;11.85;;;0.90;99.90;;;;;;5034620;28;20021;-78
2022/03/02 00:16:55;;;;;;;21.15;14.00;;;0.90;99.90;;;;;;5034978;28;20033;-78
2022/03/02 00:19:20;;;;;;;23.25;13.25;;;0.90;99.90;;;;;;5027568;28;20032;-78
2022/03/02 00:21:46;;;;;;;24.67;15.02;;;0.80;99.90;;;;;;5050167;28;20172;-77
2022/03/02 00:24:12;;;;;;;25.90;13.88;;;0.90;99.90;;;;;;5037758;28;20505;-78
2022/03/02 00:26:38;;;;;;;18.50;13.68;;;1.00;99.90;;;;;;5031072;28;20022;-78
2022/03/02 00:29:05;;;;;;;21.80;13.95;;;1.00;99.90;;;;;;5036270;28;20022;-76
2022/03/02 00:31:31;;;;;;;19.48;14.02;;;1.10;99.90;;;;;;5034856;28;20097;-79
2022/03/02 00:33:57;;;;;;;16.88;13.02;;;1.00;99.90;;;;;;5035625;28;20044;-83
2022/03/02 00:36:22;;;;;;;20.27;13.82;;;1.00;99.90;;;;;;5039707;28;20553;-82
2022/03/02 00:38:48;;;;;;;16.95;12.93;;;1.10;99.90;;;;;;5052482;28;20025;-78
2022/03/02 00:41:14;;;;;;;17.80;12.98;;;1.20;99.90;;;;;;5034572;28;20034;-80
2022/03/02 00:43:39;;;;;;;16.80;12.23;;;1.20;99.90;;;;;;5040046;28;20052;-80
2022/03/02 00:46:05;;;;;;;23.83;16.25;;;1.10;99.90;;;;;;5035626;28;20029;-77
2022/03/02 00:48:31;;;;;;;22.35;13.60;;;1.10;99.90;;;;;;5043562;28;20494;-78
2022/03/02 00:50:57;;;;;;;23.83;13.77;;;1.10;99.90;;;;;;5045094;28;20033;-80
2022/03/02 00:53:22;;;;;;;19.60;12.90;;;1.10;99.90;;;;;;5038846;28;20033;-81
2022/03/02 00:55:48;;;;;;;22.25;14.63;;;1.20;99.90;;;;;;5039077;28;20128;-79
2022/03/02 00:58:14;;;;;;;18.35;13.38;;;1.20;99.90;;;;;;5038142;28;20029;-80
2022/03/02 01:00:39;;;;;;;17.58;12.85;;;1.20;99.90;;;;;;5057135;28;20088;-79
2022/03/02 01:03:05;;;;;;;28.10;15.70;;;1.30;99.90;;;;;;5036105;28;20030;-80
2022/03/02 01:05:30;;;;;;;19.13;12.93;;;1.30;99.90;;;;;;5041000;28;20022;-78
2022/03/02 01:07:56;;;;;;;20.45;13.00;;;1.30;99.90;;;;;;5043979;28;20032;-79
2022/03/02 01:10:22;;;;;;;24.15;13.68;;;1.30;99.90;;;;;;5040927;28;20026;-79
2022/03/02 01:12:50;;;;;;;21.45;13.63;;;1.30;99.90;;;;;;5040858;28;20036;-77
2022/03/02 01:15:16;;;;;;;21.48;12.75;;;1.30;99.90;;;;;;5045910;28;20456;-78
2022/03/02 01:17:42;;;;;;;21.42;15.32;;;1.30;99.90;;;;;;5040981;28;20029;-78
2022/03/02 01:20:10;;;;;;;17.67;13.60;;;1.30;99.90;;;;;;5041689;28;20033;-79
2022/03/02 01:22:38;;;;;;;20.83;14.50;;;1.20;99.90;;;;;;5037089;28;20036;-78
2022/03/02 01:25:06;;;;;;;17.08;13.63;;;1.20;99.90;;;;;;5042167;28;20397;-80
2022/03/02 01:27:31;;;;;;;20.73;13.77;;;1.20;99.90;;;;;;5036033;28;20025;-80
2022/03/02 01:29:57;;;;;;;20.35;12.02;;;1.10;99.90;;;;;;5052047;28;20576;-80
2022/03/02 01:32:23;;;;;;;22.80;15.02;;;1.10;99.90;;;;;;5026369;28;20116;-81
2022/03/02 01:34:48;;;;;;;21.52;13.70;;;1.20;99.90;;;;;;5038297;28;20017;-79
2022/03/02 01:37:15;;;;;;;17.48;13.52;;;1.10;99.90;;;;;;5039083;28;20040;-80
2022/03/02 01:39:41;;;;;;;22.35;14.50;;;1.20;99.90;;;;;;5040775;28;20049;-79
2022/03/02 01:42:06;;;;;;;36.70;16.50;;;1.20;99.90;;;;;;5057066;28;20481;-80
2022/03/02 01:44:34;;;;;;;18.40;12.90;;;1.20;99.90;;;;;;5039556;28;20021;-80
2022/03/02 01:46:59;;;;;;;20.83;13.70;;;1.20;99.90;;;;;;5038660;28;20033;-79
2022/03/02 01:49:25;;;;;;;20.35;14.30;;;1.20;99.90;;;;;;5038885;28;20131;-80
2022/03/02 01:51:51;;;;;;;20.38;13.57;;;1.10;99.90;;;;;;5039004;28;20048;-80
2022/03/02 01:54:16;;;;;;;22.55;13.93;;;1.10;99.90;;;;;;5051964;28;20029;-79
2022/03/02 01:56:42;;;;;;;20.98;13.63;;;1.10;99.90;;;;;;5035846;28;20029;-77
2022/03/02 01:59:09;;;;;;;21.90;15.30;;;1.00;99.90;;;;;;5036948;28;20053;-79
2022/03/02 02:01:34;;;;;;;19.67;14.43;;;1.20;99.90;;;;;;5051967;28;20029;-79
2022/03/02 02:04:01;;;;;;;20.20;14.25;;;1.20;99.90;;;;;;5036547;28;20397;-79
2022/03/02 02:06:26;;;;;;;22.08;14.35;;;1.30;99.90;;;;;;5053984;28;20097;-79
2022/03/02 02:08:52;;;;;;;17.38;12.20;;;1.40;99.90;;;;;;5040391;28;20053;-79
2022/03/02 02:11:18;;;;;;;22.50;12.77;;;1.50;99.90;;;;;;5053439;28;20556;-78
2022/03/02 02:13:44;;;;;;;25.48;13.38;;;1.60;99.90;;;;;;5032336;28;20396;-79
2022/03/02 02:16:09;;;;;;;29.92;13.60;;;1.60;99.90;;;;;;5039430;28;20037;-79
2022/03/02 02:18:35;;;;;;;20.20;13.25;;;1.50;99.90;;;;;;5039658;28;20520;-79
2022/03/02 02:21:07;;;;;;;21.15;12.88;;;1.40;99.90;;;;;;5053612;28;20040;-78
2022/03/02 02:23:33;;;;;;;17.30;13.48;;;1.40;99.90;;;;;;5031806;28;20025;-79
2022/03/02 02:25:59;;;;;;;27.45;13.25;;;1.30;99.90;;;;;;5037569;28;20088;-79
2022/03/02 02:28:26;;;;;;;22.42;14.25;;;1.00;99.90;;;;;;5031746;28;20069;-80
2022/03/02 02:30:57;;;;;;;19.55;12.75;;;0.90;99.90;;;;;;5030997;28;20018;-79
2022/03/02 02:33:24;;;;;;;23.13;13.55;;;0.70;99.90;;;;;;5034698;28;20055;-79
2022/03/02 02:35:49;;;;;;;19.10;13.27;;;0.60;99.90;;;;;;5036005;28;20598;-79
2022/03/02 02:38:16;;;;;;;18.77;12.55;;;0.50;99.90;;;;;;5039872;28;20041;-80
2022/03/02 02:40:43;;;;;;;21.77;12.85;;;0.50;99.90;;;;;;5039042;28;20395;-80
2022/03/02 02:43:08;;;;;;;32.47;14.52;;;0.40;99.90;;;;;;5032246;28;20036;-80
2022/03/02 02:45:34;;;;;;;28.42;13.00;;;0.60;99.90;;;;;;5037390;28;20022;-79
2022/03/02 02:48:00;;;;;;;24.00;16.30;;;0.60;99.90;;;;;;5038510;28;20089;-79
2022/03/02 02:50:29;;;;;;;17.88;11.20;;;0.50;99.90;;;;;;5039314;28;20037;-78
2022/03/02 02:52:57;;;;;;;15.35;11.43;;;0.50;99.90;;;;;;5037935;28;20033;-79
2022/03/02 02:55:25;;;;;;;24.73;12.40;;;0.50;99.90;;;;;;5036043;28;20085;-79
2022/03/02 02:57:51;;;;;;;16.95;11.60;;;0.40;99.90;;;;;;5036131;28;20029;-80
2022/03/02 03:00:19;;;;;;;21.13;12.52;;;0.30;99.90;;;;;;5037544;28;20422;-79
2022/03/02 03:02:50;;;;;;;18.70;12.73;;;0.20;99.90;;;;;;5052885;28;20025;-78
2022/03/02 03:05:21;;;;;;;22.55;15.02;;;0.20;99.90;;;;;;5038886;28;20033;-79
2022/03/02 03:07:48;;;;;;;17.70;12.98;;;0.10;99.90;;;;;;5034086;28;20036;-78
2022/03/02 03:10:15;;;;;;;15.18;12.07;;;0.20;99.90;;;;;;5036179;28;20437;-79
2022/03/02 03:12:44;;;;;;;15.77;12.40;;;0.10;99.90;;;;;;5035825;28;20037;-80
2022/03/02 03:15:12;;;;;;;22.48;12.95;;;0.20;99.90;;;;;;5035535;28;20036;-79
2022/03/02 03:17:38;;;;;;;17.83;12.45;;;0.20;99.90;;;;;;5037304;28;20017;-79
2022/03/02 03:20:06;;;;;;;15.52;11.70;;;0.10;99.90;;;;;;5038779;28;20116;-79
2022/03/02 03:22:32;;;;;;;18.75;14.00;;;0.00;99.90;;;;;;5037366;28;20030;-79
2022/03/02 03:24:58;;;;;;;17.65;13.82;;;0.00;99.90;;;;;;5036730;28;20349;-79
2022/03/02 03:27:25;;;;;;;19.23;13.15;;;0.00;99.90;;;;;;5036971;28;20033;-79
2022/03/02 03:29:50;;;;;;;16.35;13.13;;;-0.10;99.90;;;;;;5037062;28;20114;-80
2022/03/02 03:32:16;;;;;;;22.23;13.93;;;-0.10;99.90;;;;;;5051879;28;20068;-79
2022/03/02 03:34:42;;;;;;;17.17;12.52;;;-0.10;99.90;;;;;;5031471;28;20033;-79
2022/03/02 03:37:08;;;;;;;19.25;12.63;;;-0.10;99.90;;;;;;5035939;28;20022;-79
2022/03/02 03:39:34;;;;;;;24.55;15.50;;;-0.10;99.90;;;;;;5038354;28;20022;-78
2022/03/02 03:42:00;;;;;;;20.98;11.75;;;0.00;99.90;;;;;;5037452;28;20092;-79
2022/03/02 03:44:25;;;;;;;25.73;15.10;;;0.10;99.90;;;;;;5030967;28;20614;-79
2022/03/02 03:46:52;;;;;;;21.73;13.98;;;0.00;99.90;;;;;;5037038;28;20401;-79
2022/03/02 03:49:17;;;;;;;21.83;13.00;;;-0.10;99.90;;;;;;5035844;28;20459;-80
2022/03/02 03:51:43;;;;;;;19.85;12.77;;;-0.10;99.90;;;;;;5035838;28;20104;-78
2022/03/02 03:54:09;;;;;;;22.50;13.15;;;-0.20;99.90;;;;;;5037821;28;20429;-80
2022/03/02 03:56:35;;;;;;;19.45;13.57;;;-0.20;99.90;;;;;;5052908;28;20029;-79
2022/03/02 03:59:01;;;;;;;20.02;13.35;;;-0.30;99.90;;;;;;5037513;28;20037;-80
2022/03/02 04:01:27;;;;;;;20.27;13.10;;;-0.20;99.90;;;;;;5036172;28;20021;-79
2022/03/02 04:03:53;;;;;;;17.30;13.07;;;-0.20;99.90;;;;;;5034319;28;20131;-79
2022/03/02 04:06:19;;;;;;;20.88;13.82;;;-0.10;99.90;;;;;;5032595;28;20040;-79
2022/03/02 04:08:45;;;;;;;22.15;13.68;;;0.10;99.90;;;;;;5035681;28;20116;-79
2022/03/02 04:11:11;;;;;;;18.23;14.13;;;0.20;99.90;;;;;;5036493;28;20122;-79
2022/03/02 04:13:36;;;;;;;25.05;14.10;;;0.30;99.90;;;;;;5035681;28;20032;-78
2022/03/02 04:16:03;;;;;;;22.15;14.52;;;0.30;99.90;;;;;;5033854;28;20029;-78
2022/03/02 04:18:28;;;;;;;18.02;13.30;;;0.20;99.90;;;;;;5031188;28;20535;-78
2022/03/02 04:20:54;;;;;;;14.88;11.98;;;0.20;99.90;;;;;;5033693;28;20025;-79
2022/03/02 04:23:21;;;;;;;21.67;15.45;;;0.20;99.90;;;;;;5034278;28;20025;-79
2022/03/02 04:25:48;;;;;;;19.08;12.73;;;0.30;99.90;;;;;;5034568;28;20014;-79
2022/03/02 04:28:15;;;;;;;19.27;13.98;;;0.10;99.90;;;;;;5036260;28;20136;-80
2022/03/02 04:30:40;;;;;;;24.95;13.80;;;-0.10;99.90;;;;;;5036486;28;20076;-78
2022/03/02 04:33:06;;;;;;;23.75;14.40;;;-0.20;99.90;;;;;;5032710;28;20037;-79
2022/03/02 04:35:33;;;;;;;23.10;15.18;;;-0.30;99.90;;;;;;5035207;28;20022;-80
2022/03/02 04:37:59;;;;;;;25.17;16.77;;;-0.40;99.90;;;;;;5036776;28;20056;-79
2022/03/02 04:40:25;;;;;;;26.60;15.52;;;-0.40;99.90;;;;;;5037318;28;20048;-79
2022/03/02 04:42:50;;;;;;;22.20;15.45;;;-0.40;99.90;;;;;;5050118;28;20049;-79
2022/03/02 04:45:16;;;;;;;26.45;14.95;;;-0.40;99.90;;;;;;5052482;28;20064;-79
2022/03/02 04:47:42;;;;;;;26.90;16.15;;;-0.40;99.90;;;;;;5053716;28;20033;-78
2022/03/02 04:50:11;;;;;;;26.77;16.25;;;-0.40;99.90;;;;;;5055815;28;20110;-78
2022/03/02 04:52:36;;;;;;;22.20;13.93;;;-0.60;99.90;;;;;;5053966;28;20025;-78
2022/03/02 04:55:05;;;;;;;24.15;13.43;;;-0.50;99.90;;;;;;5043797;28;20044;-79
2022/03/02 04:57:32;;;;;;;19.65;14.23;;;-0.50;99.90;;;;;;5025736;28;20144;-79
2022/03/02 04:59:58;;;;;;;19.13;14.32;;;-0.30;99.90;;;;;;5040739;28;20040;-79
2022/03/02 05:02:24;;;;;;;19.85;13.35;;;-0.30;99.90;;;;;;5053833;28;20021;-79
2022/03/02 05:04:49;;;;;;;17.00;12.80;;;-0.30;99.90;;;;;;5052756;28;20084;-79
2022/03/02 05:07:16;;;;;;;18.88;13.98;;;-0.30;99.90;;;;;;5071042;28;20037;-79
2022/03/02 05:09:42;;;;;;;17.55;12.45;;;-0.10;99.90;;;;;;5051704;28;19997;-78
2022/03/02 05:12:08;;;;;;;18.52;12.88;;;-0.20;99.90;;;;;;5056655;28;20029;-80
2022/03/02 05:14:34;;;;;;;18.58;12.77;;;-0.40;99.90;;;;;;5059176;28;20022;-79
2022/03/02 05:16:59;;;;;;;21.52;12.45;;;-0.30;99.90;;;;;;5065869;28;20057;-79
2022/03/02 05:19:25;;;;;;;20.83;14.45;;;-0.40;99.90;;;;;;5034752;28;20040;-80
2022/03/02 05:21:51;;;;;;;19.08;13.27;;;-0.40;99.90;;;;;;5036675;28;20018;-79
2022/03/02 05:24:16;;;;;;;21.40;14.25;;;-0.50;99.90;;;;;;5039693;28;20397;-79
2022/03/02 05:26:42;;;;;;;21.80;12.25;;;-0.60;99.90;;;;;;5046216;28;20028;-79
2022/03/02 05:29:08;;;;;;;18.10;13.23;;;-0.70;99.90;;;;;;5046610;28;20025;-79
2022/03/02 05:31:34;;;;;;;21.40;14.07;;;-0.70;99.90;;;;;;5047149;28;20120;-78
2022/03/02 05:34:00;;;;;;;24.88;13.85;;;-0.70;99.90;;;;;;5047491;28;20029;-78
2022/03/02 05:36:26;;;;;;;25.42;14.32;;;-0.60;99.90;;;;;;5057795;28;20046;-79
2022/03/02 05:38:52;;;;;;;17.55;12.63;;;-0.60;99.90;;;;;;5055301;28;20017;-78
2022/03/02 05:41:18;;;;;;;30.38;16.13;;;-0.60;99.90;;;;;;5054731;28;20056;-79
2022/03/02 05:43:44;;;;;;;20.55;13.95;;;-0.60;99.90;;;;;;5039229;28;20033;-78
2022/03/02 05:46:09;;;;;;;22.33;13.55;;;-0.60;99.90;;;;;;5033494;28;20112;-79
2022/03/02 05:48:35;;;;;;;22.73;14.70;;;-0.60;99.90;;;;;;5035222;28;20112;-79
2022/03/02 05:51:01;;;;;;;24.38;14.77;;;-0.50;99.90;;;;;;5036067;28;20112;-79
2022/03/02 05:53:26;;;;;;;30.00;14.88;;;-0.60;99.90;;;;;;5035289;28;20081;-79
2022/03/02 05:55:52;;;;;;;28.50;14.73;;;-0.60;99.90;;;;;;5035348;28;20021;-79
2022/03/02 05:58:17;;;;;;;24.00;14.38;;;-0.50;99.90;;;;;;5034386;28;20025;-79
2022/03/02 06:00:43;;;;;;;20.05;14.32;;;-0.40;99.90;;;;;;5032508;28;20025;-78
2022/03/02 06:03:10;;;;;;;25.55;15.32;;;-0.10;99.90;;;;;;5035887;28;20032;-79
2022/03/02 06:05:35;;;;;;;29.52;15.25;;;0.00;99.90;;;;;;5029270;28;20025;-78
2022/03/02 06:08:01;;;;;;;22.50;14.90;;;0.10;99.90;;;;;;5035095;28;20047;-80
2022/03/02 06:10:27;;;;;;;22.02;13.90;;;0.20;99.90;;;;;;5035797;28;20079;-79
2022/03/02 06:12:52;;;;;;;25.15;15.40;;;0.30;99.90;;;;;;5034291;28;20036;-78
2022/03/02 06:15:18;;;;;;;22.50;15.45;;;0.20;99.90;;;;;;5038125;28;20018;-79
2022/03/02 06:17:44;;;;;;;24.70;14.75;;;0.10;99.90;;;;;;5038048;28;20037;-80
2022/03/02 06:20:11;;;;;;;21.65;15.60;;;0.10;99.90;;;;;;5034354;28;20033;-80
2022/03/02 06:22:37;;;;;;;19.98;13.55;;;0.00;99.90;;;;;;5037797;28;20036;-79
2022/03/02 06:25:05;;;;;;;18.23;14.25;;;0.10;99.90;;;;;;5037937;28;20456;-80
2022/03/02 06:27:30;;;;;;;21.55;13.10;;;0.10;99.90;;;;;;5037781;28;20120;-80
2022/03/02 06:29:56;;;;;;;23.75;14.15;;;0.20;99.90;;;;;;5037832;28;20116;-79
2022/03/02 06:32:22;;;;;;;22.40;14.55;;;0.20;99.90;;;;;;5038113;28;20561;-79
2022/03/02 06:34:47;;;;;;;21.88;15.13;;;0.20;99.90;;;;;;5038600;28;20037;-79
2022/03/02 06:37:13;;;;;;;22.58;17.05;;;0.20;99.90;;;;;;5043297;28;20033;-79
2022/03/02 06:39:39;;;;;;;23.52;14.27;;;0.50;99.90;;;;;;5047878;28;20029;-79
2022/03/02 06:42:29;;;;;;;24.10;15.85;;;0.80;99.90;;;;;;5038471;28;20628;-80
2022/03/02 06:45:04;;;;;;;19.73;13.50;;;0.90;99.90;;;;;;5049409;28;20032;-79
2022/03/02 06:47:36;;;;;;;24.65;14.15;;;1.00;99.90;;;;;;5038487;28;20025;-79
2022/03/02 06:50:06;;;;;;;22.23;15.02;;;0.90;99.90;;;;;;5034683;28;20025;-80
2022/03/02 06:52:44;;;;;;;21.55;13.90;;;1.00;99.90;;;;;;5045009;28;20053;-80
2022/03/02 06:55:17;;;;;;;20.50;14.40;;;0.90;99.90;;;;;;5030233;28;20137;-79
2022/03/02 06:57:56;;;;;;;23.48;14.50;;;1.20;99.90;;;;;;5034589;28;20087;-80
2022/03/02 07:00:23;;;;;;;25.70;14.88;;;1.20;99.90;;;;;;5035757;28;20030;-77
2022/03/02 07:03:02;;;;;;;24.60;14.45;;;1.30;99.90;;;;;;5047536;28;20059;-77
2022/03/02 07:05:28;;;;;;;27.65;14.63;;;1.40;99.90;;;;;;5063175;28;20025;-77
2022/03/02 07:07:54;;;;;;;20.33;14.05;;;1.40;99.90;;;;;;5051145;28;20029;-77
2022/03/02 07:10:20;;;;;;;30.38;14.52;;;1.40;99.90;;;;;;5040233;28;20039;-79
2022/03/02 07:12:46;;;;;;;24.80;14.57;;;1.20;99.90;;;;;;5033075;28;20032;-80
2022/03/02 07:15:12;;;;;;;21.13;14.02;;;1.10;99.90;;;;;;5032594;28;20451;-81
2022/03/02 07:17:39;;;;;;;29.98;14.10;;;1.10;99.90;;;;;;5033579;28;20030;-79
2022/03/02 07:20:10;;;;;;;25.90;14.40;;;1.40;99.90;;;;;;5029335;28;20030;-79
2022/03/02 07:22:47;;;;;;;21.13;15.48;;;1.70;99.90;;;;;;5032041;28;20140;-79
2022/03/02 07:25:19;;;;;;;19.35;14.27;;;1.80;99.90;;;;;;5035301;28;20531;-78
2022/03/02 07:27:45;;;;;;;25.42;14.60;;;1.80;99.90;;;;;;5030310;28;20026;-80
2022/03/02 07:30:11;;;;;;;25.45;14.93;;;1.90;99.90;;;;;;5033366;28;20026;-80
2022/03/02 07:32:41;;;;;;;22.58;14.40;;;1.90;99.90;;;;;;5033860;28;20086;-80
2022/03/02 07:35:07;;;;;;;26.00;14.05;;;2.00;99.90;;;;;;5032209;28;20130;-80
2022/03/02 07:37:33;;;;;;;25.02;14.93;;;2.10;99.90;;;;;;5034310;28;20021;-78
2022/03/02 07:40:00;;;;;;;18.90;13.63;;;2.20;99.90;;;;;;5030155;28;20033;-77
2022/03/02 07:42:25;;;;;;;23.75;14.60;;;2.40;99.90;;;;;;5031842;28;20029;-79
2022/03/02 07:44:53;;;;;;;27.40;17.50;;;2.40;99.90;;;;;;5033241;28;20085;-79
2022/03/02 07:47:18;;;;;;;21.80;14.07;;;2.40;99.90;;;;;;5034300;28;20096;-78
2022/03/02 07:49:45;;;;;;;22.95;14.10;;;2.40;99.90;;;;;;5037225;28;20045;-81
2022/03/02 07:52:14;;;;;;;28.50;14.93;;;2.50;99.90;;;;;;5036516;28;20033;-80
2022/03/02 07:54:40;;;;;;;27.77;14.43;;;2.60;99.90;;;;;;5038492;28;20034;-80
2022/03/02 07:57:07;;;;;;;24.38;16.05;;;2.70;99.90;;;;;;5035815;28;20078;-78
2022/03/02 07:59:40;;;;;;;22.52;14.57;;;2.60;99.90;;;;;;5034852;28;20026;-79
2022/03/02 08:02:08;;;;;;;21.30;15.93;;;2.60;99.90;;;;;;5037055;28;20473;-77
2022/03/02 08:04:38;;;;;;;23.23;15.38;;;2.60;99.90;;;;;;5037925;28;20029;-82
2022/03/02 08:07:04;;;;;;;24.42;14.82;;;2.90;99.90;;;;;;5036745;28;20041;-79
2022/03/02 08:09:34;;;;;;;22.05;14.90;;;2.90;99.90;;;;;;5027745;28;20025;-78
2022/03/02 08:12:00;;;;;;;26.00;14.48;;;3.10;99.90;;;;;;5036341;28;20043;-80
2022/03/02 08:14:29;;;;;;;21.15;15.00;;;3.20;99.90;;;;;;5031268;28;20053;-79
2022/03/02 08:16:55;;;;;;;25.08;15.88;;;3.30;99.90;;;;;;5028801;28;20048;-78
2022/03/02 08:19:22;;;;;;;22.35;14.85;;;3.20;99.90;;;;;;5029009;28;20038;-75
2022/03/02 08:21:57;;;;;;;18.88;14.77;;;3.10;99.90;;;;;;5032370;28;20025;-77
2022/03/02 08:24:29;;;;;;;25.65;15.25;;;3.40;99.90;;;;;;5031427;28;20025;-75
2022/03/02 08:27:00;;;;;;;23.42;15.48;;;3.30;99.90;;;;;;5031919;28;20034;-78
2022/03/02 08:29:30;;;;;;;27.33;15.68;;;3.50;99.90;;;;;;5032498;28;20048;-76
2022/03/02 08:31:59;;;;;;;22.95;16.35;;;3.60;99.70;;;;;;5047055;28;20087;-76
2022/03/02 08:34:25;;;;;;;27.08;16.23;;;3.70;99.10;;;;;;5032210;28;20037;-77
2022/03/02 08:36:53;;;;;;;30.92;17.35;;;3.80;99.10;;;;;;5030852;28;20053;-75
2022/03/02 08:39:18;;;;;;;21.50;15.45;;;3.70;99.10;;;;;;5031794;28;20025;-77
2022/03/02 08:41:44;;;;;;;25.33;16.58;;;3.60;99.20;;;;;;5034715;28;20156;-77
2022/03/02 08:44:13;;;;;;;25.63;14.88;;;3.30;99.80;;;;;;5035985;28;20017;-77
2022/03/02 08:46:40;;;;;;;20.45;15.02;;;3.60;99.70;;;;;;5039037;28;20049;-75
2022/03/02 08:49:06;;;;;;;23.13;15.20;;;4.10;98.60;;;;;;5038237;28;20111;-74
2022/03/02 08:51:34;;;;;;;21.05;14.60;;;4.40;97.90;;;;;;5034948;28;20026;-74
2022/03/02 08:54:01;;;;;;;21.75;15.07;;;4.20;97.40;;;;;;5035391;28;20115;-73
2022/03/02 08:56:27;;;;;;;24.65;14.85;;;4.40;97.40;;;;;;5032446;28;20033;-74
2022/03/02 08:58:54;;;;;;;20.85;15.02;;;4.40;97.60;;;;;;5035132;28;20044;-75
2022/03/02 09:01:20;;;;;;;21.08;14.25;;;4.80;96.70;;;;;;5024688;28;20034;-73
2022/03/02 09:03:51;;;;;;;22.15;13.88;;;4.70;97.10;;;;;;5031997;28;20044;-75
2022/03/02 09:06:19;;;;;;;21.45;14.57;;;5.20;95.80;;;;;;5031894;28;20551;-73
2022/03/02 09:08:44;;;;;;;21.58;14.38;;;5.30;95.10;;;;;;5028355;28;20075;-75
2022/03/02 09:11:10;;;;;;;22.77;14.35;;;5.40;94.80;;;;;;5034191;28;20096;-73
2022/03/02 09:13:37;;;;;;;17.88;13.07;;;5.50;94.60;;;;;;5023822;28;20089;-75
2022/03/02 09:16:04;;;;;;;19.38;14.82;;;5.30;94.90;;;;;;5026940;28;20440;-78
2022/03/02 09:18:30;;;;;;;21.20;15.35;;;5.50;94.50;;;;;;5032722;28;20141;-76
2022/03/02 09:21:03;;;;;;;22.83;15.07;;;5.70;94.40;;;;;;5032564;28;20049;-74
2022/03/02 09:23:31;;;;;;;15.98;12.77;;;6.10;94.10;;;;;;5036325;28;20119;-75
2022/03/02 09:26:04;;;;;;;19.45;14.63;;;5.80;94.20;;;;;;5038114;28;20025;-74
2022/03/02 09:28:33;;;;;;;20.15;14.65;;;5.80;94.30;;;;;;5021596;28;20061;-76
2022/03/02 09:31:03;;;;;;;25.48;14.98;;;5.80;93.90;;;;;;5024194;28;20021;-74
2022/03/02 09:33:30;;;;;;;16.98;14.25;;;5.90;94.50;;;;;;5024402;28;20029;-75
2022/03/02 09:35:56;;;;;;;23.17;14.70;;;5.90;94.50;;;;;;5034058;28;20172;-75
2022/03/02 09:38:23;;;;;;;24.85;16.58;;;6.30;93.30;;;;;;5025189;28;20022;-75
2022/03/02 09:40:50;;;;;;;19.77;14.88;;;6.40;92.50;;;;;;5034239;28;20021;-75
2022/03/02 09:43:21;;;;;;;22.75;15.00;;;6.00;93.30;;;;;;5033075;28;20030;-75
2022/03/02 09:45:50;;;;;;;22.48;14.18;;;6.20;93.40;;;;;;5024906;28;20025;-74
2022/03/02 09:48:33;;;;;;;19.83;14.23;;;6.50;92.20;;;;;;5041571;28;20112;-75
2022/03/02 09:51:02;;;;;;;16.27;13.52;;;7.20;91.00;;;;;;5035669;28;20474;-77
2022/03/02 09:53:30;;;;;;;19.60;12.65;;;7.50;88.70;;;;;;5026204;28;20049;-74
2022/03/02 09:55:59;;;;;;;19.20;11.95;;;7.50;87.80;;;;;;5034658;28;20489;-74
2022/03/02 09:58:27;;;;;;;19.35;13.30;;;7.20;88.00;;;;;;5023537;28;20117;-77
2022/03/02 10:00:55;;;;;;;25.70;15.63;;;7.10;88.90;;;;;;5033812;28;20021;-75
2022/03/02 10:03:24;;;;;;;16.67;12.80;;;7.30;87.70;;;;;;5030998;28;20100;-75
2022/03/02 10:05:52;;;;;;;18.48;13.20;;;7.50;87.00;;;;;;5032177;28;20445;-73
2022/03/02 10:08:23;;;;;;;24.85;13.43;;;7.50;86.90;;;;;;5024759;28;20058;-75
2022/03/02 10:10:49;;;;;;;20.83;14.52;;;7.60;86.40;;;;;;5026556;28;20017;-73
2022/03/02 10:13:17;;;;;;;23.27;12.93;;;7.50;86.20;;;;;;5025660;28;20049;-75
2022/03/02 10:15:44;;;;;;;18.73;14.32;;;7.40;86.30;;;;;;5025841;28;20473;-75
2022/03/02 10:18:13;;;;;;;17.35;13.38;;;7.60;86.20;;;;;;5030617;28;20029;-75
2022/03/02 10:20:49;;;;;;;20.92;14.73;;;7.50;86.80;;;;;;5026528;28;20037;-74
2022/03/02 10:23:37;;;;;;;21.05;14.65;;;7.80;85.40;;;;;;5037532;28;20014;-74
2022/03/02 10:26:10;;;;;;;21.42;14.10;;;8.10;84.80;;;;;;5047987;28;20030;-74
2022/03/02 10:29:02;;;;;;;20.83;14.05;;;8.40;83.40;;;;;;5039872;28;20053;-75
2022/03/02 10:32:08;;;;;;;20.50;14.55;;;8.60;83.00;;;;;;5038394;28;20037;-74
2022/03/02 10:34:47;;;;;;;19.85;13.18;;;8.50;82.70;;;;;;5025016;28;20430;-74
2022/03/02 10:37:33;;;;;;;22.23;14.18;;;8.50;82.60;;;;;;5032990;28;20480;-76
2022/03/02 10:40:12;;;;;;;19.85;13.07;;;8.60;82.20;;;;;;5048466;28;20022;-74
2022/03/02 10:43:04;;;;;;;21.52;13.25;;;8.60;82.00;;;;;;5037545;28;20018;-75
2022/03/02 10:45:51;;;;;;;21.50;13.05;;;8.70;81.40;;;;;;5025447;28;20033;-75
2022/03/02 10:48:38;;;;;;;20.92;14.23;;;8.40;81.30;;;;;;5028800;28;20030;-73
2022/03/02 10:51:06;;;;;;;17.08;13.25;;;8.00;82.80;;;;;;5031707;28;20563;-74
2022/03/02 10:53:36;;;;;;;15.55;12.30;;;8.00;82.30;;;;;;5024711;28;20090;-75
2022/03/02 10:56:04;;;;;;;16.88;13.88;;;8.30;81.80;;;;;;5031649;28;20063;-74
2022/03/02 10:58:31;;;;;;;16.42;13.13;;;8.30;81.60;;;;;;5028448;28;20485;-74
2022/03/02 11:00:59;;;;;;;16.85;12.77;;;8.40;81.20;;;;;;5030519;28;20029;-74
2022/03/02 11:03:28;;;;;;;17.85;13.18;;;8.40;80.70;;;;;;5032660;28;20397;-81
2022/03/02 11:05:59;;;;;;;18.85;12.90;;;8.40;80.20;;;;;;5044308;28;20104;-74
2022/03/02 11:08:25;;;;;;;19.10;14.43;;;7.60;81.70;;;;;;5045099;28;20022;-75
2022/03/02 11:10:50;;;;;;;23.60;13.43;;;7.30;83.90;;;;;;5044444;28;20101;-75
2022/03/02 11:13:16;;;;;;;17.45;12.52;;;7.80;83.80;;;;;;5030548;28;20033;-75
2022/03/02 11:15:50;;;;;;;18.23;12.95;;;8.10;81.90;;;;;;5028695;28;20021;-73
2022/03/02 11:18:19;;;;;;;17.55;13.60;;;8.30;81.30;;;;;;5031169;28;20026;-75
2022/03/02 11:21:20;;;;;;;21.83;13.73;;;8.30;80.80;;;;;;5027870;28;20486;-76
2022/03/02 11:23:52;;;;;;;19.52;12.85;;;8.20;81.30;;;;;;5028029;28;20026;-75
2022/03/02 11:26:23;;;;;;;21.33;11.73;;;8.20;81.60;;;;;;5043936;28;20026;-75
2022/03/02 11:28:51;;;;;;;16.10;13.13;;;8.60;80.40;;;;;;5031950;28;20101;-76
2022/03/02 11:31:24;;;;;;;18.92;12.38;;;8.70;78.40;;;;;;5027785;28;20040;-76
2022/03/02 11:33:51;;;;;;;24.17;13.30;;;8.90;78.70;;;;;;5032359;28;20444;-76
2022/03/02 11:36:19;;;;;;;16.13;12.98;;;9.00;78.00;;;;;;5032014;28;20155;-75
2022/03/02 11:38:50;;;;;;;16.38;14.48;;;8.40;78.60;;;;;;5023508;28;20477;-76
2022/03/02 11:41:16;;;;;;;23.25;12.73;;;8.30;79.40;;;;;;5032812;28;20389;-76
2022/03/02 11:43:43;;;;;;;22.15;13.35;;;8.40;79.90;;;;;;5025786;28;20028;-74
2022/03/02 11:46:10;;;;;;;16.08;12.63;;;9.10;78.50;;;;;;5042456;28;20042;-74
2022/03/02 11:48:40;;;;;;;21.38;13.23;;;9.20;77.00;;;;;;5031533;28;20036;-76
2022/03/02 11:51:12;;;;;;;16.92;13.50;;;9.60;77.30;;;;;;5028288;28;20026;-75
2022/03/02 11:53:46;;;;;;;15.52;13.02;;;9.90;75.80;;;;;;5031178;28;20116;-75
2022/03/02 11:56:19;;;;;;;24.08;14.30;;;9.80;74.80;;;;;;5028725;28;20501;-74
2022/03/02 11:58:58;;;;;;;19.42;13.90;;;9.90;74.40;;;;;;5030557;28;20083;-75
2022/03/02 12:01:25;;;;;;;23.33;13.13;;;9.90;75.20;;;;;;5037301;28;20037;-75
2022/03/02 12:03:59;;;;;;;18.42;13.25;;;9.80;73.50;;;;;;5031120;28;20025;-75
2022/03/02 12:06:27;;;;;;;18.65;13.00;;;9.80;74.10;;;;;;5031376;28;20026;-79
2022/03/02 12:08:56;;;;;;;17.42;13.60;;;10.10;73.40;;;;;;5031804;28;20030;-76
2022/03/02 12:11:35;;;;;;;19.65;14.07;;;10.10;73.40;;;;;;5027404;28;20037;-75
2022/03/02 12:14:12;;;;;;;18.40;13.55;;;10.20;72.30;;;;;;5030738;28;20037;-73
2022/03/02 12:16:43;;;;;;;16.15;12.57;;;10.00;72.20;;;;;;5046599;28;20472;-74
2022/03/02 12:19:27;;;;;;;13.90;11.77;;;9.80;71.80;;;;;;5035326;28;20056;-74
2022/03/02 12:22:02;;;;;;;14.00;11.95;;;10.10;72.00;;;;;;5035015;28;20049;-74
2022/03/02 12:24:30;;;;;;;14.32;12.18;;;10.20;70.80;;;;;;5035713;28;20109;-79
2022/03/02 12:27:07;;;;;;;16.02;11.98;;;10.40;70.10;;;;;;5030922;28;20430;-74
2022/03/02 12:29:39;;;;;;;16.75;11.85;;;10.50;70.40;;;;;;5032170;28;20022;-76
2022/03/02 12:32:08;;;;;;;14.13;11.55;;;10.10;70.70;;;;;;5035514;28;20021;-76
2022/03/02 12:34:35;;;;;;;16.50;12.38;;;10.00;71.80;;;;;;5035938;28;20101;-76
2022/03/02 12:37:02;;;;;;;12.80;11.38;;;9.60;72.10;;;;;;5050078;28;20029;-75
2022/03/02 12:39:29;;;;;;;14.77;12.18;;;10.00;71.20;;;;;;5035521;28;20021;-75
2022/03/02 12:41:55;;;;;;;12.95;11.13;;;10.10;70.80;;;;;;5049466;28;20573;-74